Time;durP1;ratioP1;P1;durP2;ratioP2;P2;SDS_P1;SDS_P2;PMS_P1;PMS_P2;Temp;Humidity;BMP_temperature;BMP_pressure;BME280_temperature;BME280_humidity;BME280_pressure;Samples;Min_cycle;Max_cycle;Signal;HPM_P1;HPM_P2
2020/12/23 00:00:46;;;;;;;2.28;1.38;;;9.90;93.80;;;;;;5113414;28;20521;-73
2020/12/23 00:03:11;;;;;;;2.85;1.58;;;9.80;93.80;;;;;;5095099;28;20432;-72
2020/12/23 00:05:37;;;;;;;1.90;1.10;;;9.80;93.80;;;;;;5112734;28;20050;-74
2020/12/23 00:08:03;;;;;;;2.55;1.60;;;9.70;93.80;;;;;;5113458;28;20047;-72
2020/12/23 00:10:28;;;;;;;2.25;1.33;;;9.70;93.90;;;;;;5112799;28;20511;-72
2020/12/23 00:12:54;;;;;;;2.67;1.50;;;9.70;93.90;;;;;;5113174;28;20046;-72
2020/12/23 00:15:20;;;;;;;2.42;1.33;;;9.80;93.90;;;;;;5077551;28;20043;-73
2020/12/23 00:17:45;;;;;;;2.00;1.10;;;9.70;93.90;;;;;;5094581;28;20097;-72
2020/12/23 00:20:11;;;;;;;1.98;1.25;;;9.80;93.90;;;;;;5094411;28;20443;-72
2020/12/23 00:22:37;;;;;;;2.67;1.00;;;9.70;93.90;;;;;;5112411;28;20035;-72
2020/12/23 00:25:04;;;;;;;1.27;0.77;;;9.70;93.90;;;;;;5094531;28;20078;-72
2020/12/23 00:27:30;;;;;;;2.13;1.10;;;9.80;93.90;;;;;;5112635;28;20100;-72
2020/12/23 00:29:56;;;;;;;2.10;1.10;;;9.80;93.90;;;;;;5112307;28;20396;-72
2020/12/23 00:32:21;;;;;;;1.92;1.00;;;9.70;93.90;;;;;;5112115;28;20043;-72
2020/12/23 00:34:47;;;;;;;2.75;1.42;;;9.80;93.90;;;;;;5112641;28;20117;-72
2020/12/23 00:37:13;;;;;;;1.98;1.10;;;9.70;93.90;;;;;;5112153;28;20047;-73
2020/12/23 00:39:39;;;;;;;2.97;1.48;;;9.80;93.90;;;;;;5112279;28;20181;-73
2020/12/23 00:42:05;;;;;;;2.38;1.25;;;9.80;93.90;;;;;;5112606;28;20529;-72
2020/12/23 00:44:31;;;;;;;2.83;1.58;;;9.80;93.90;;;;;;5112141;28;20031;-73
2020/12/23 00:46:56;;;;;;;2.25;1.42;;;9.80;93.90;;;;;;5094225;28;20397;-72
2020/12/23 00:49:22;;;;;;;3.35;1.50;;;9.80;93.90;;;;;;5112117;28;20105;-72
2020/12/23 00:51:50;;;;;;;2.75;1.50;;;9.80;93.90;;;;;;5112391;28;20040;-73
2020/12/23 00:54:16;;;;;;;2.88;1.52;;;9.70;93.90;;;;;;5112707;28;20031;-72
2020/12/23 00:56:42;;;;;;;3.00;1.55;;;9.80;93.90;;;;;;5113973;28;20081;-73
2020/12/23 00:59:07;;;;;;;2.95;1.40;;;9.80;93.90;;;;;;5115975;28;20036;-74
2020/12/23 01:01:33;;;;;;;3.60;1.60;;;9.80;93.90;;;;;;5115958;28;20051;-71
2020/12/23 01:03:59;;;;;;;2.40;1.30;;;9.80;93.90;;;;;;5115475;28;20047;-73
2020/12/23 01:06:24;;;;;;;2.58;1.50;;;9.80;93.90;;;;;;5115957;28;20543;-72
2020/12/23 01:08:50;;;;;;;3.53;1.75;;;9.80;93.90;;;;;;5097272;28;20125;-73
2020/12/23 01:11:16;;;;;;;1.80;1.02;;;9.80;93.90;;;;;;5115701;28;20070;-73
2020/12/23 01:13:42;;;;;;;3.30;1.60;;;9.90;93.90;;;;;;5115223;28;20150;-73
2020/12/23 01:16:08;;;;;;;3.15;1.60;;;9.90;93.90;;;;;;5114968;28;20051;-72
2020/12/23 01:18:33;;;;;;;2.65;1.30;;;9.90;93.90;;;;;;5096935;28;20028;-70
2020/12/23 01:20:59;;;;;;;2.38;1.30;;;9.90;93.90;;;;;;5115313;28;20043;-72
2020/12/23 01:23:31;;;;;;;2.95;1.40;;;9.80;93.90;;;;;;5096829;28;20084;-73
2020/12/23 01:25:57;;;;;;;2.95;1.45;;;9.90;93.90;;;;;;5114923;28;20043;-72
2020/12/23 01:28:23;;;;;;;2.00;1.10;;;9.90;93.90;;;;;;5115057;28;20040;-72
2020/12/23 01:30:49;;;;;;;3.05;1.30;;;9.80;93.90;;;;;;5096688;28;20056;-70
2020/12/23 01:33:14;;;;;;;2.70;1.40;;;9.90;93.90;;;;;;5094973;28;20039;-73
2020/12/23 01:35:40;;;;;;;2.58;1.35;;;9.90;93.90;;;;;;5115061;28;20035;-73
2020/12/23 01:38:06;;;;;;;4.18;1.38;;;9.90;93.90;;;;;;5115383;28;20078;-72
2020/12/23 01:40:32;;;;;;;4.60;1.50;;;9.90;93.90;;;;;;5115523;28;20043;-72
2020/12/23 01:42:58;;;;;;;2.03;1.10;;;9.90;93.90;;;;;;5115469;28;20039;-72
2020/12/23 01:45:24;;;;;;;1.95;0.82;;;9.90;93.90;;;;;;5115398;28;20047;-73
2020/12/23 01:47:52;;;;;;;1.52;0.85;;;10.00;93.90;;;;;;5115008;28;20370;-72
2020/12/23 01:50:18;;;;;;;3.72;1.50;;;10.00;93.90;;;;;;5096586;28;20097;-72
2020/12/23 01:52:44;;;;;;;3.00;1.50;;;9.90;93.90;;;;;;5115147;28;20044;-72
2020/12/23 01:55:11;;;;;;;2.20;1.20;;;9.90;93.90;;;;;;5114651;28;20027;-72
2020/12/23 01:57:37;;;;;;;2.45;1.15;;;9.90;93.90;;;;;;5114524;28;20122;-73
2020/12/23 02:00:05;;;;;;;3.75;1.70;;;10.00;93.90;;;;;;5114470;28;20121;-72
2020/12/23 02:02:32;;;;;;;2.97;1.50;;;10.00;93.90;;;;;;5097031;28;20484;-73
2020/12/23 02:04:59;;;;;;;3.35;1.60;;;10.00;93.90;;;;;;5114998;28;20055;-74
2020/12/23 02:07:26;;;;;;;3.55;1.42;;;10.10;94.20;;;;;;5113799;28;20123;-73
2020/12/23 02:09:53;;;;;;;2.30;1.20;;;10.00;94.00;;;;;;5113805;28;20048;-73
2020/12/23 02:12:20;;;;;;;2.97;1.25;;;10.00;93.90;;;;;;5114414;28;20040;-72
2020/12/23 02:14:47;;;;;;;2.17;1.00;;;10.10;93.90;;;;;;5114786;28;20040;-72
2020/12/23 02:17:12;;;;;;;1.85;1.02;;;10.00;93.90;;;;;;5114190;28;20079;-72
2020/12/23 02:19:53;;;;;;;4.35;1.70;;;10.00;93.90;;;;;;5114371;28;20039;-72
2020/12/23 02:22:21;;;;;;;2.58;1.55;;;10.00;93.90;;;;;;5112523;28;20122;-72
2020/12/23 02:24:49;;;;;;;3.80;1.60;;;10.10;93.90;;;;;;5114278;28;20093;-72
2020/12/23 02:27:19;;;;;;;5.70;2.28;;;10.00;93.90;;;;;;5095893;28;20206;-72
2020/12/23 02:29:47;;;;;;;4.40;2.10;;;10.10;93.90;;;;;;5079202;28;20039;-72
2020/12/23 02:32:13;;;;;;;3.22;1.67;;;10.00;93.90;;;;;;5114023;28;20126;-72
2020/12/23 02:34:40;;;;;;;4.55;2.05;;;10.00;93.90;;;;;;5096538;28;20457;-73
2020/12/23 02:37:07;;;;;;;4.13;1.63;;;10.00;93.90;;;;;;5114162;28;20036;-72
2020/12/23 02:39:33;;;;;;;4.55;2.08;;;10.00;93.90;;;;;;5114730;28;20419;-72
2020/12/23 02:42:00;;;;;;;4.93;1.90;;;10.10;94.00;;;;;;5114587;28;20039;-72
2020/12/23 02:44:26;;;;;;;3.72;1.40;;;10.00;93.90;;;;;;5114002;28;20166;-72
2020/12/23 02:47:10;;;;;;;5.47;2.00;;;10.00;93.90;;;;;;5114235;28;20483;-72
2020/12/23 02:49:36;;;;;;;3.83;1.63;;;10.10;94.00;;;;;;5095897;28;20409;-72
2020/12/23 02:52:03;;;;;;;3.97;1.60;;;10.00;93.90;;;;;;5114052;28;20412;-72
2020/12/23 02:54:28;;;;;;;3.33;1.60;;;10.00;93.90;;;;;;5095527;28;20063;-70
2020/12/23 02:56:54;;;;;;;3.78;1.58;;;10.10;94.00;;;;;;5114072;28;20489;-72
2020/12/23 02:59:20;;;;;;;4.05;1.60;;;10.10;94.00;;;;;;5113960;28;20041;-72
2020/12/23 03:01:45;;;;;;;3.25;1.35;;;10.10;94.00;;;;;;5114290;28;20227;-72
2020/12/23 03:04:12;;;;;;;3.45;1.50;;;10.10;94.00;;;;;;5113716;28;20062;-69
2020/12/23 03:06:38;;;;;;;2.40;1.10;;;10.10;94.00;;;;;;5095366;28;20039;-72
2020/12/23 03:09:06;;;;;;;3.15;1.38;;;10.10;94.00;;;;;;5113431;28;20112;-72
2020/12/23 03:11:32;;;;;;;6.80;1.63;;;10.10;94.00;;;;;;5113233;28;20047;-72
2020/12/23 03:13:58;;;;;;;4.88;1.63;;;10.10;93.90;;;;;;5113593;28;20081;-72
2020/12/23 03:16:24;;;;;;;3.13;1.38;;;10.10;94.00;;;;;;5093094;28;20393;-72
2020/12/23 03:18:50;;;;;;;4.13;1.50;;;10.20;94.20;;;;;;5112948;28;20032;-71
2020/12/23 03:21:16;;;;;;;3.67;1.50;;;10.10;94.00;;;;;;5113251;28;20078;-72
2020/12/23 03:23:41;;;;;;;3.80;1.50;;;10.20;93.90;;;;;;5095140;28;20453;-71
2020/12/23 03:26:07;;;;;;;3.50;1.63;;;10.20;94.00;;;;;;5113230;28;20063;-72
2020/12/23 03:28:33;;;;;;;3.28;1.33;;;10.10;94.00;;;;;;5113621;28;20042;-72
2020/12/23 03:30:59;;;;;;;4.13;1.60;;;10.20;94.00;;;;;;5113105;28;20543;-72
2020/12/23 03:33:25;;;;;;;5.68;2.15;;;10.20;94.00;;;;;;5113141;28;20039;-72
2020/12/23 03:35:51;;;;;;;4.05;1.50;;;10.20;94.00;;;;;;5078019;28;20051;-72
2020/12/23 03:38:17;;;;;;;4.03;1.60;;;10.20;94.00;;;;;;5112940;28;20061;-71
2020/12/23 03:40:43;;;;;;;3.78;1.55;;;10.20;93.90;;;;;;5094730;28;20046;-72
2020/12/23 03:43:08;;;;;;;4.88;1.60;;;10.20;94.00;;;;;;5113218;28;20035;-72
2020/12/23 03:45:34;;;;;;;3.25;1.48;;;10.20;94.00;;;;;;5113110;28;20389;-72
2020/12/23 03:48:00;;;;;;;5.28;1.90;;;10.20;94.00;;;;;;5112897;28;20036;-72
2020/12/23 03:50:25;;;;;;;6.40;1.90;;;10.20;94.00;;;;;;5113056;28;20537;-72
2020/12/23 03:52:51;;;;;;;4.50;1.73;;;10.20;94.00;;;;;;5112924;28;20044;-72
2020/12/23 03:55:17;;;;;;;5.25;1.90;;;10.20;94.00;;;;;;5113062;28;20046;-72
2020/12/23 03:57:42;;;;;;;5.35;1.95;;;10.30;94.00;;;;;;5113379;28;20039;-71
2020/12/23 04:00:10;;;;;;;4.72;1.67;;;10.30;94.00;;;;;;5112850;28;20040;-71
2020/12/23 04:02:36;;;;;;;5.00;2.00;;;10.30;94.00;;;;;;5112690;28;20051;-72
2020/12/23 04:05:02;;;;;;;4.43;1.80;;;10.30;94.00;;;;;;5112646;28;20031;-72
2020/12/23 04:07:28;;;;;;;3.97;1.50;;;10.30;93.90;;;;;;5112615;28;20036;-72
2020/12/23 04:09:54;;;;;;;4.72;2.13;;;10.40;94.00;;;;;;5113105;28;20182;-72
2020/12/23 04:12:20;;;;;;;6.38;2.22;;;10.30;93.90;;;;;;5113044;28;20127;-72
2020/12/23 04:14:46;;;;;;;3.80;1.80;;;10.30;93.90;;;;;;5094319;28;20040;-72
2020/12/23 04:17:12;;;;;;;2.58;1.35;;;10.30;93.90;;;;;;5112605;28;20115;-72
2020/12/23 04:19:38;;;;;;;3.65;1.30;;;10.40;94.00;;;;;;5112408;28;20043;-72
2020/12/23 04:22:04;;;;;;;4.15;1.50;;;10.40;94.00;;;;;;5112529;28;20048;-72
2020/12/23 04:24:30;;;;;;;5.47;2.00;;;10.40;94.00;;;;;;5094340;28;20403;-72
2020/12/23 04:26:56;;;;;;;6.63;1.90;;;10.40;94.00;;;;;;5094299;28;20055;-73
2020/12/23 04:29:22;;;;;;;2.95;1.50;;;10.40;94.00;;;;;;5112467;28;20436;-72
2020/12/23 04:31:48;;;;;;;3.17;1.42;;;10.40;94.00;;;;;;5114258;28;20152;-72
2020/12/23 04:34:13;;;;;;;3.40;1.55;;;10.40;94.00;;;;;;5116108;28;20035;-72
2020/12/23 04:36:40;;;;;;;3.85;1.38;;;10.40;94.00;;;;;;5116352;28;20036;-72
2020/12/23 04:39:06;;;;;;;4.90;1.65;;;10.50;94.00;;;;;;5116022;28;20032;-73
2020/12/23 04:41:34;;;;;;;5.10;1.58;;;10.50;94.00;;;;;;5116046;28;20110;-73
2020/12/23 04:44:01;;;;;;;4.63;1.50;;;10.50;94.00;;;;;;5115746;28;20389;-73
2020/12/23 04:46:32;;;;;;;3.25;1.20;;;10.50;94.00;;;;;;5116356;28;20366;-73
2020/12/23 04:48:59;;;;;;;3.63;1.70;;;10.50;94.00;;;;;;5081023;28;20397;-73
2020/12/23 04:51:34;;;;;;;3.05;1.38;;;10.50;94.00;;;;;;5097255;28;20039;-73
2020/12/23 04:54:02;;;;;;;4.32;1.60;;;10.50;94.00;;;;;;5116040;28;20114;-73
2020/12/23 04:56:29;;;;;;;3.85;1.60;;;10.50;94.00;;;;;;5115876;28;20031;-73
2020/12/23 04:58:56;;;;;;;3.17;1.45;;;10.50;94.00;;;;;;5115505;28;20040;-73
2020/12/23 05:01:23;;;;;;;5.78;1.77;;;10.50;94.00;;;;;;5080795;28;20043;-73
2020/12/23 05:03:50;;;;;;;5.30;2.05;;;10.60;94.00;;;;;;5116181;28;20051;-73
2020/12/23 05:06:16;;;;;;;3.15;1.30;;;10.60;94.00;;;;;;5115720;28;20465;-74
2020/12/23 05:08:42;;;;;;;2.63;1.40;;;10.50;94.00;;;;;;5116050;28;20109;-73
2020/12/23 05:11:09;;;;;;;2.78;1.20;;;10.60;94.00;;;;;;5115521;28;20067;-73
2020/12/23 05:13:35;;;;;;;3.67;1.55;;;10.60;94.00;;;;;;5116100;28;20039;-74
2020/12/23 05:16:04;;;;;;;2.45;1.15;;;10.60;94.00;;;;;;5115574;28;20044;-74
2020/12/23 05:18:33;;;;;;;3.33;1.30;;;10.60;94.00;;;;;;5115769;28;20044;-74
2020/12/23 05:21:00;;;;;;;4.95;1.80;;;10.60;94.00;;;;;;5115666;28;20436;-75
2020/12/23 05:23:31;;;;;;;5.20;2.30;;;10.60;94.00;;;;;;5115570;28;20039;-75
2020/12/23 05:26:05;;;;;;;2.85;1.33;;;10.60;94.00;;;;;;5115914;28;20035;-75
2020/12/23 05:28:32;;;;;;;3.45;1.48;;;10.70;94.00;;;;;;5115839;28;20043;-74
2020/12/23 05:31:00;;;;;;;3.95;1.65;;;10.70;94.00;;;;;;5115215;28;20047;-74
2020/12/23 05:33:26;;;;;;;3.75;1.50;;;10.70;94.00;;;;;;5096928;28;20485;-75
2020/12/23 05:35:55;;;;;;;3.70;1.48;;;10.70;94.00;;;;;;5115123;28;20055;-75
2020/12/23 05:38:21;;;;;;;2.88;1.30;;;10.70;94.00;;;;;;5115667;28;20458;-75
2020/12/23 05:40:46;;;;;;;4.15;1.60;;;10.80;94.00;;;;;;5115608;28;20031;-75
2020/12/23 05:43:14;;;;;;;2.97;1.35;;;10.80;94.00;;;;;;5115419;28;20066;-75
2020/12/23 05:45:41;;;;;;;3.40;1.42;;;10.80;94.00;;;;;;5115225;28;20491;-75
2020/12/23 05:48:12;;;;;;;2.88;1.30;;;10.80;94.00;;;;;;5115646;28;20032;-75
2020/12/23 05:50:39;;;;;;;2.53;1.30;;;10.80;94.00;;;;;;5115606;28;20059;-76
2020/12/23 05:53:13;;;;;;;3.67;1.60;;;10.80;94.00;;;;;;5114851;28;20558;-76
2020/12/23 05:55:55;;;;;;;2.65;1.45;;;10.80;94.00;;;;;;5115217;28;20043;-76
2020/12/23 05:58:21;;;;;;;;;;;10.80;94.00;;;;;;5096950;28;20484;-75
2020/12/23 06:00:49;;;;;;;3.15;1.40;;;10.80;93.90;;;;;;5114765;28;19933;-75
2020/12/23 06:03:22;;;;;;;2.55;1.50;;;10.90;93.90;;;;;;5114673;28;20042;-75
2020/12/23 06:06:03;;;;;;;3.05;1.50;;;10.90;94.00;;;;;;5114704;28;20043;-75
2020/12/23 06:08:33;;;;;;;3.10;1.60;;;10.90;94.00;;;;;;5114794;28;20044;-75
2020/12/23 06:11:32;;;;;;;2.95;1.70;;;10.80;94.00;;;;;;5096434;28;20135;-75
2020/12/23 06:14:19;;;;;;;1.90;1.13;;;10.90;94.00;;;;;;5114522;28;20493;-75
2020/12/23 06:16:49;;;;;;;2.03;1.10;;;10.90;94.00;;;;;;5114712;28;20036;-75
2020/12/23 06:19:28;;;;;;;1.92;1.10;;;11.00;94.00;;;;;;5114696;28;20040;-74
2020/12/23 06:21:56;;;;;;;2.25;1.10;;;10.90;94.00;;;;;;5114560;28;20062;-75
2020/12/23 06:24:22;;;;;;;2.58;1.33;;;10.90;94.00;;;;;;5114738;28;20093;-74
2020/12/23 06:26:51;;;;;;;2.28;1.27;;;10.90;94.00;;;;;;5114520;28;20046;-75
2020/12/23 06:29:21;;;;;;;1.88;1.02;;;10.90;94.00;;;;;;5114563;28;20140;-74
2020/12/23 06:31:53;;;;;;;3.13;1.50;;;10.90;94.00;;;;;;5114482;28;20067;-74
2020/12/23 06:34:22;;;;;;;1.95;1.00;;;11.00;94.00;;;;;;5114809;28;20089;-74
2020/12/23 06:36:49;;;;;;;2.20;1.13;;;11.00;94.00;;;;;;5096329;28;20039;-74
2020/12/23 06:39:39;;;;;;;1.77;0.75;;;11.00;94.00;;;;;;5114291;28;20031;-74
2020/12/23 06:42:25;;;;;;;1.60;0.85;;;11.00;94.00;;;;;;5114149;28;20043;-74
2020/12/23 06:45:01;;;;;;;1.80;1.00;;;11.00;94.00;;;;;;5099878;28;20443;-74
2020/12/23 06:47:30;;;;;;;2.30;1.30;;;11.10;94.10;;;;;;5114600;28;20047;-74
2020/12/23 06:50:00;;;;;;;1.13;0.93;;;11.10;94.00;;;;;;5114010;28;20048;-74
2020/12/23 06:52:30;;;;;;;3.38;1.58;;;11.10;94.00;;;;;;5113914;28;20051;-74
2020/12/23 06:55:05;;;;;;;2.72;1.38;;;11.10;94.00;;;;;;5113061;28;20508;-74
2020/12/23 06:57:50;;;;;;;2.42;1.40;;;11.20;94.00;;;;;;5114450;28;20522;-74
2020/12/23 07:00:33;;;;;;;2.22;1.50;;;11.20;93.90;;;;;;5096489;28;20119;-74
2020/12/23 07:03:01;;;;;;;3.60;1.95;;;11.30;93.90;;;;;;5114487;28;20032;-73
2020/12/23 07:05:42;;;;;;;2.55;1.55;;;11.30;93.90;;;;;;5096053;28;20165;-74
2020/12/23 07:08:11;;;;;;;2.25;1.27;;;11.40;93.80;;;;;;5112563;28;20060;-74
2020/12/23 07:10:41;;;;;;;2.50;1.50;;;11.40;93.80;;;;;;5113839;28;20036;-74
2020/12/23 07:13:13;;;;;;;2.10;1.50;;;11.50;93.80;;;;;;5114412;28;20169;-74
2020/12/23 07:15:43;;;;;;;2.90;1.55;;;11.50;93.70;;;;;;5114347;28;20540;-73
2020/12/23 07:18:14;;;;;;;1.67;1.33;;;11.60;93.70;;;;;;5113871;28;20104;-74
2020/12/23 07:20:47;;;;;;;2.67;1.55;;;11.60;93.70;;;;;;5113605;28;20194;-74
2020/12/23 07:23:16;;;;;;;2.65;1.50;;;11.60;93.70;;;;;;5114009;28;20048;-74
2020/12/23 07:25:47;;;;;;;2.08;1.30;;;11.70;93.70;;;;;;5114230;28;20130;-74
2020/12/23 07:28:17;;;;;;;1.90;1.40;;;11.70;93.70;;;;;;5050613;28;20041;-73
2020/12/23 07:30:44;;;;;;;3.22;1.38;;;11.70;93.70;;;;;;5051387;28;20048;-74
2020/12/23 07:33:14;;;;;;;2.55;1.60;;;11.70;93.70;;;;;;5050682;28;20041;-74
2020/12/23 07:35:44;;;;;;;1.88;1.40;;;11.70;93.70;;;;;;5050904;28;20079;-74
2020/12/23 07:38:10;;;;;;;2.65;1.60;;;11.70;93.70;;;;;;5050525;28;20045;-74
2020/12/23 07:40:36;;;;;;;2.95;1.80;;;11.70;93.70;;;;;;5050795;28;20045;-74
2020/12/23 07:43:03;;;;;;;2.55;1.67;;;11.80;93.70;;;;;;5034162;28;20047;-74
2020/12/23 07:45:31;;;;;;;3.08;1.85;;;11.80;94.00;;;;;;5050668;28;20041;-73
2020/12/23 07:47:59;;;;;;;2.75;1.60;;;11.80;93.70;;;;;;5050729;28;20045;-73
2020/12/23 07:50:28;;;;;;;2.55;1.60;;;11.80;93.70;;;;;;5050637;28;20045;-73
2020/12/23 07:52:54;;;;;;;2.17;1.67;;;11.70;93.70;;;;;;5050622;28;20107;-73
2020/12/23 07:55:22;;;;;;;5.15;1.90;;;11.90;93.80;;;;;;5050559;28;20079;-73
2020/12/23 07:57:49;;;;;;;3.95;2.05;;;11.80;93.70;;;;;;5033893;28;20051;-73
2020/12/23 08:00:16;;;;;;;2.95;1.70;;;11.80;93.70;;;;;;5091650;28;20035;-73
2020/12/23 08:02:42;;;;;;;2.70;1.77;;;11.90;93.80;;;;;;5113106;28;20036;-73
2020/12/23 08:05:12;;;;;;;2.17;1.55;;;11.80;93.70;;;;;;5112779;28;20405;-74
2020/12/23 08:07:42;;;;;;;2.95;1.70;;;11.90;93.80;;;;;;5112846;28;20132;-73
2020/12/23 08:10:11;;;;;;;2.40;1.75;;;11.90;93.80;;;;;;5112875;28;20039;-73
2020/12/23 08:12:37;;;;;;;3.55;2.08;;;11.90;93.80;;;;;;5112616;28;20392;-73
2020/12/23 08:15:15;;;;;;;3.40;1.88;;;11.90;93.80;;;;;;5094970;28;20108;-73
2020/12/23 08:17:41;;;;;;;3.00;1.45;;;11.80;93.80;;;;;;5112869;28;20061;-73
2020/12/23 08:20:11;;;;;;;3.72;1.67;;;11.90;93.90;;;;;;5112785;28;20039;-75
2020/12/23 08:22:39;;;;;;;2.40;1.55;;;11.90;93.90;;;;;;5113210;28;20075;-73
2020/12/23 08:25:08;;;;;;;2.22;1.50;;;11.90;93.90;;;;;;5112649;28;20055;-73
2020/12/23 08:27:35;;;;;;;3.20;1.27;;;11.90;93.90;;;;;;5112590;28;20046;-73
2020/12/23 08:30:05;;;;;;;2.28;1.30;;;11.90;93.90;;;;;;5112768;28;20450;-73
2020/12/23 08:32:35;;;;;;;2.22;1.33;;;11.90;93.90;;;;;;5112554;28;20043;-74
2020/12/23 08:35:01;;;;;;;2.40;1.40;;;11.90;93.90;;;;;;5112998;28;20042;-74
2020/12/23 08:37:28;;;;;;;1.75;1.23;;;11.80;93.90;;;;;;5112436;28;20442;-74
2020/12/23 08:39:56;;;;;;;2.20;1.38;;;11.90;93.90;;;;;;5112601;28;20036;-75
2020/12/23 08:42:22;;;;;;;1.98;1.20;;;11.90;93.90;;;;;;5112558;28;20043;-74
2020/12/23 08:44:51;;;;;;;1.77;1.40;;;11.90;93.90;;;;;;5112299;28;20397;-74
2020/12/23 08:47:25;;;;;;;2.08;1.45;;;11.90;93.90;;;;;;5112428;28;20039;-73
2020/12/23 08:49:53;;;;;;;2.70;1.40;;;11.90;93.90;;;;;;5112498;28;20374;-73
2020/12/23 08:52:19;;;;;;;2.25;1.40;;;12.00;93.90;;;;;;5112304;28;20039;-73
2020/12/23 08:54:45;;;;;;;2.47;1.40;;;11.90;93.90;;;;;;5112433;28;20512;-73
2020/12/23 08:57:14;;;;;;;2.17;1.52;;;12.00;93.90;;;;;;5112741;28;20046;-73
2020/12/23 08:59:40;;;;;;;1.40;1.27;;;12.00;93.90;;;;;;5112658;28;20044;-73
2020/12/23 09:02:14;;;;;;;1.65;1.15;;;11.90;93.90;;;;;;5112303;28;20042;-73
2020/12/23 09:04:40;;;;;;;1.98;1.27;;;12.00;93.90;;;;;;5112632;28;20039;-72
2020/12/23 09:07:06;;;;;;;2.25;1.30;;;11.90;93.90;;;;;;5112020;28;20035;-72
2020/12/23 09:09:33;;;;;;;1.70;1.10;;;11.90;93.90;;;;;;5112110;28;20047;-73
2020/12/23 09:12:01;;;;;;;1.67;1.20;;;12.00;93.90;;;;;;5112269;28;20050;-72
2020/12/23 09:14:30;;;;;;;1.55;1.25;;;12.00;93.90;;;;;;5112612;28;20039;-73
2020/12/23 09:16:58;;;;;;;1.67;1.10;;;12.00;94.00;;;;;;5094078;28;20028;-71
2020/12/23 09:19:58;;;;;;;1.55;1.10;;;12.00;94.00;;;;;;5116142;28;20067;-72
2020/12/23 09:22:27;;;;;;;1.00;0.90;;;12.10;94.00;;;;;;5115393;28;20051;-72
2020/12/23 09:24:52;;;;;;;1.52;1.00;;;12.00;93.90;;;;;;5115716;28;20067;-73
2020/12/23 09:27:22;;;;;;;1.10;0.90;;;12.00;93.90;;;;;;5115457;28;20047;-72
2020/12/23 09:29:48;;;;;;;1.65;1.00;;;12.00;93.90;;;;;;5115429;28;20066;-72
2020/12/23 09:32:14;;;;;;;1.23;0.90;;;12.10;94.00;;;;;;5097015;28;20090;-74
2020/12/23 09:34:40;;;;;;;1.55;0.90;;;12.10;94.00;;;;;;5115166;28;20428;-74
2020/12/23 09:37:07;;;;;;;0.75;0.75;;;12.00;94.00;;;;;;5115762;28;20038;-74
2020/12/23 09:39:37;;;;;;;1.65;0.88;;;12.10;94.00;;;;;;5115901;28;20047;-74
2020/12/23 09:42:05;;;;;;;2.00;0.80;;;12.00;94.00;;;;;;5115888;28;20055;-74
2020/12/23 09:44:33;;;;;;;0.77;0.60;;;12.10;94.00;;;;;;5115128;28;20035;-75
2020/12/23 09:46:58;;;;;;;1.13;0.90;;;12.10;94.00;;;;;;5097720;28;20089;-75
2020/12/23 09:49:25;;;;;;;0.82;0.73;;;12.10;94.00;;;;;;5115698;28;20119;-75
2020/12/23 09:51:52;;;;;;;0.88;0.63;;;12.10;94.00;;;;;;5096841;28;20397;-74
2020/12/23 09:54:18;;;;;;;1.17;0.60;;;12.10;94.00;;;;;;5115489;28;20035;-75
2020/12/23 09:56:51;;;;;;;1.10;0.82;;;12.00;94.00;;;;;;5115226;28;20039;-75
2020/12/23 09:59:19;;;;;;;1.10;0.77;;;12.10;94.10;;;;;;5115128;28;20067;-74
2020/12/23 10:01:45;;;;;;;0.95;0.70;;;12.00;94.10;;;;;;5114927;28;20067;-74
2020/12/23 10:04:11;;;;;;;1.17;0.80;;;12.10;94.10;;;;;;5114802;28;20044;-74
2020/12/23 10:06:37;;;;;;;1.38;0.82;;;12.10;94.10;;;;;;5114988;28;20047;-74
2020/12/23 10:09:04;;;;;;;1.00;0.80;;;12.10;94.10;;;;;;5115345;28;20530;-74
2020/12/23 10:11:30;;;;;;;1.05;0.60;;;12.10;94.10;;;;;;5114706;28;20044;-74
2020/12/23 10:13:57;;;;;;;0.90;0.70;;;12.10;94.10;;;;;;5096454;28;20082;-74
2020/12/23 10:16:30;;;;;;;0.93;0.77;;;12.20;94.10;;;;;;5097227;28;20039;-74
2020/12/23 10:18:55;;;;;;;0.98;0.60;;;12.10;94.10;;;;;;5114892;28;20044;-74
2020/12/23 10:21:21;;;;;;;0.73;0.50;;;12.10;94.10;;;;;;5096420;28;20042;-73
2020/12/23 10:23:47;;;;;;;1.50;0.70;;;12.10;94.10;;;;;;5114874;28;20038;-74
2020/12/23 10:26:14;;;;;;;0.77;0.70;;;12.10;94.10;;;;;;5114847;28;20093;-74
2020/12/23 10:28:40;;;;;;;1.05;0.60;;;12.10;94.10;;;;;;5113564;28;20109;-73
2020/12/23 10:31:07;;;;;;;0.70;0.70;;;12.10;94.10;;;;;;5114167;28;20079;-74
2020/12/23 10:33:34;;;;;;;0.57;0.57;;;12.10;94.10;;;;;;5079249;28;20044;-74
2020/12/23 10:36:01;;;;;;;0.50;0.50;;;12.10;94.10;;;;;;5114652;28;20421;-75
2020/12/23 10:38:28;;;;;;;0.60;0.50;;;12.20;94.20;;;;;;5114301;28;20040;-74
2020/12/23 10:40:55;;;;;;;0.50;0.50;;;12.10;94.10;;;;;;5096258;28;20362;-74
2020/12/23 10:43:21;;;;;;;0.75;0.65;;;12.20;94.20;;;;;;5114222;28;20074;-74
2020/12/23 10:45:47;;;;;;;0.70;0.70;;;12.20;94.20;;;;;;5114422;28;20043;-71
2020/12/23 10:48:13;;;;;;;0.50;0.50;;;12.20;94.20;;;;;;5114146;28;20400;-74
2020/12/23 10:50:38;;;;;;;0.30;0.30;;;12.20;94.20;;;;;;5095893;28;20042;-72
2020/12/23 10:53:04;;;;;;;1.02;0.65;;;12.20;94.10;;;;;;5113895;28;20474;-73
2020/12/23 10:55:30;;;;;;;0.30;0.30;;;12.20;94.10;;;;;;5078683;28;20035;-71
2020/12/23 10:57:55;;;;;;;0.90;0.70;;;12.20;94.10;;;;;;5113840;28;20374;-71
2020/12/23 11:00:21;;;;;;;1.52;0.65;;;12.20;94.10;;;;;;5113883;28;20078;-71
2020/12/23 11:02:48;;;;;;;0.65;0.65;;;12.10;94.10;;;;;;5114212;28;20035;-72
2020/12/23 11:05:14;;;;;;;0.40;0.40;;;12.10;94.10;;;;;;5113873;28;20443;-72
2020/12/23 11:07:40;;;;;;;0.77;0.60;;;12.20;94.20;;;;;;5113792;28;20042;-73
2020/12/23 11:10:11;;;;;;;0.90;0.60;;;12.10;94.20;;;;;;5113967;28;20489;-74
2020/12/23 11:12:37;;;;;;;0.90;0.73;;;12.10;94.20;;;;;;5096414;28;20528;-73
2020/12/23 11:15:03;;;;;;;0.50;0.50;;;12.10;94.20;;;;;;5095277;28;20055;-74
2020/12/23 11:17:32;;;;;;;0.50;0.50;;;12.10;94.20;;;;;;5074854;28;20051;-74
2020/12/23 11:19:57;;;;;;;0.38;0.38;;;12.00;94.20;;;;;;5078291;28;20036;-74
2020/12/23 11:22:23;;;;;;;0.80;0.50;;;12.10;94.30;;;;;;5053942;28;20131;-74
2020/12/23 11:24:50;;;;;;;0.95;0.47;;;12.10;94.30;;;;;;5037454;28;20094;-74
2020/12/23 11:27:25;;;;;;;0.65;0.65;;;12.10;94.30;;;;;;5037767;28;20101;-74
2020/12/23 11:29:51;;;;;;;0.30;0.30;;;12.10;94.40;;;;;;5037642;28;20102;-74
2020/12/23 11:32:17;;;;;;;0.40;0.38;;;12.10;94.30;;;;;;5070700;28;20040;-74
2020/12/23 11:34:42;;;;;;;0.40;0.30;;;12.10;94.40;;;;;;5054055;28;20490;-74
2020/12/23 11:37:08;;;;;;;0.52;0.40;;;12.10;94.40;;;;;;5071195;28;20040;-74
2020/12/23 11:39:34;;;;;;;0.32;0.32;;;12.10;94.40;;;;;;5054079;28;20036;-74
2020/12/23 11:42:00;;;;;;;0.70;0.38;;;12.10;94.40;;;;;;5070922;28;20040;-73
2020/12/23 11:44:27;;;;;;;0.77;0.50;;;12.10;94.40;;;;;;5054410;28;20421;-73
2020/12/23 11:46:53;;;;;;;0.38;0.32;;;12.10;94.40;;;;;;5070443;28;20543;-72
2020/12/23 11:49:19;;;;;;;0.60;0.50;;;12.10;94.40;;;;;;5070871;28;20143;-74
2020/12/23 11:51:48;;;;;;;0.50;0.45;;;12.00;94.40;;;;;;5070654;28;20052;-73
2020/12/23 11:54:13;;;;;;;0.60;0.60;;;12.10;94.40;;;;;;5106746;28;20174;-74
2020/12/23 11:56:39;;;;;;;0.57;0.57;;;12.10;94.40;;;;;;5113024;28;20070;-74
2020/12/23 11:59:05;;;;;;;0.80;0.77;;;12.10;94.40;;;;;;5113056;28;20506;-73
2020/12/23 12:01:30;;;;;;;1.08;0.80;;;12.10;94.40;;;;;;5113289;28;20034;-74
2020/12/23 12:03:56;;;;;;;1.75;0.98;;;12.00;94.30;;;;;;5113197;28;20469;-74
2020/12/23 12:06:22;;;;;;;0.95;0.75;;;12.00;94.30;;;;;;5112806;28;20358;-74
2020/12/23 12:08:48;;;;;;;0.93;0.80;;;12.00;94.30;;;;;;5112866;28;20032;-73
2020/12/23 12:11:15;;;;;;;0.70;0.70;;;12.00;94.50;;;;;;5112777;28;20036;-73
2020/12/23 12:13:41;;;;;;;0.77;0.70;;;12.00;94.20;;;;;;5112679;28;20126;-73
2020/12/23 12:16:07;;;;;;;1.20;0.93;;;12.10;94.30;;;;;;5112825;28;20039;-74
2020/12/23 12:18:33;;;;;;;0.93;0.80;;;12.10;94.20;;;;;;5094775;28;20032;-74
2020/12/23 12:20:59;;;;;;;0.77;0.77;;;12.10;94.20;;;;;;5112781;28;20039;-73
2020/12/23 12:23:24;;;;;;;0.70;0.60;;;12.10;94.20;;;;;;5094786;28;20040;-73
2020/12/23 12:25:50;;;;;;;1.02;0.90;;;12.10;94.20;;;;;;5112742;28;20047;-73
2020/12/23 12:28:16;;;;;;;0.88;0.73;;;12.10;94.20;;;;;;5094533;28;20092;-73
2020/12/23 12:30:41;;;;;;;0.88;0.70;;;12.10;94.20;;;;;;5112690;28;20405;-73
2020/12/23 12:33:07;;;;;;;0.50;0.50;;;12.10;94.20;;;;;;5094779;28;20042;-73
2020/12/23 12:35:33;;;;;;;0.77;0.60;;;12.10;94.20;;;;;;5112982;28;20044;-72
2020/12/23 12:38:00;;;;;;;0.82;0.70;;;12.10;94.20;;;;;;5112869;28;20051;-72
2020/12/23 12:40:26;;;;;;;0.82;0.70;;;12.10;94.20;;;;;;5112602;28;20048;-72
2020/12/23 12:42:52;;;;;;;0.40;0.40;;;12.10;94.20;;;;;;5112897;28;20522;-72
2020/12/23 12:45:18;;;;;;;0.98;0.60;;;12.20;94.20;;;;;;5112296;28;20058;-72
2020/12/23 12:47:45;;;;;;;0.50;0.50;;;12.10;94.20;;;;;;5112473;28;20477;-73
2020/12/23 12:50:11;;;;;;;0.60;0.60;;;12.20;94.20;;;;;;5112219;28;20039;-72